Strona główna
METAR-TAF:

METAR-TAF

Lotnisko :

Ponta Porã, Mato Grosso do Sul, Brazylia

Szerokość geograficzna: 22-33S, Długość geograficzna: 055-42W, wysokość: 657 m

Aktualna obserwacja pogody

Raport powstał 6 godziny i 13 minut temu, godzina 22:00 UTC
Wiatr 6 kt od południe
Temperatura 20°C
Wilgotność 64%
Ciśnienie 1017 hPa
Widzialność 10 km lub więcej
Brak chmur poniżej 1500 m i brak chmur cumulonimbus

METAR: SBPP 082200Z 18006KT CAVOK 20/13 Q1017

czas: 00:13 (04:13 UTC)

Prognoza

Raport powstał 7 godziny i 13 minut temu, godzina 21:00 UTC
Prognoza ważna od 09 godzina 00 UTC do 09 godzina 24 UTC
Wiatr 5 kt od wschodnio-południowy wschód
Widzialność 10 km lub więcej
Brak chmur poniżej 1500 m i brak chmur cumulonimbus
Prawdopodobieństwo 30%
od 09 godzina 08 UTC do 09 godzina 11 UTC
Widzialność: 3000 m
Zachmurzenie całkowite na wysokości 200 ft
zamglenie

TAF: SBPP 082100Z 0900/0924 12005KT CAVOK TN13/0908Z TX28/0917Z PROB30 0908/0911 3000 BR OVC002 RMK PEL

Obserwacja i prognoza pogody dla ponad 4000 lotnisk (raport METAR i TAF).

Dostępne stacje oznaczono żółtymi i czerwonymi punktami na mapie.

Najedź kursorem aby zobaczyć nazwę stacji.

Kliknij aby zobaczyć obserwacje i prognozy pogody.

Aby zmienić mapę: kliknij na zielony przycisk z czarnym krzyżykiem, aby powiększyć; na zielony przycisk z myślnikiem, aby pomniejszyć; na zielone strzałki, aby przejść do map sąsiednich.


METAR-TAF: